sensor_id;sensor_type;location;lat;lon;timestamp;temperature;humidity
18287;DHT22;9269;50.838;12.094;2024-03-08T00:01:15;5.80;40.70
18287;DHT22;9269;50.838;12.094;2024-03-08T00:03:48;5.70;40.90
18287;DHT22;9269;50.838;12.094;2024-03-08T00:06:19;5.60;40.70
18287;DHT22;9269;50.838;12.094;2024-03-08T00:08:50;5.60;40.70
18287;DHT22;9269;50.838;12.094;2024-03-08T00:11:20;5.70;40.70
18287;DHT22;9269;50.838;12.094;2024-03-08T00:13:49;5.70;40.50
18287;DHT22;9269;50.838;12.094;2024-03-08T00:16:17;5.80;40.80
18287;DHT22;9269;50.838;12.094;2024-03-08T00:23:04;5.70;41.50
18287;DHT22;9269;50.838;12.094;2024-03-08T00:25:35;5.50;41.50
18287;DHT22;9269;50.838;12.094;2024-03-08T00:28:08;5.50;41.50
18287;DHT22;9269;50.838;12.094;2024-03-08T00:30:40;5.40;41.40
18287;DHT22;9269;50.838;12.094;2024-03-08T00:33:10;5.30;41.50
18287;DHT22;9269;50.838;12.094;2024-03-08T00:35:38;5.40;41.20
18287;DHT22;9269;50.838;12.094;2024-03-08T00:38:06;5.50;41.40
18287;DHT22;9269;50.838;12.094;2024-03-08T00:40:34;5.30;41.90
18287;DHT22;9269;50.838;12.094;2024-03-08T00:43:05;5.30;42.00
18287;DHT22;9269;50.838;12.094;2024-03-08T00:45:38;5.50;41.80
18287;DHT22;9269;50.838;12.094;2024-03-08T00:48:11;5.40;42.00
18287;DHT22;9269;50.838;12.094;2024-03-08T00:50:41;5.40;42.20
18287;DHT22;9269;50.838;12.094;2024-03-08T00:53:13;5.30;42.20
18287;DHT22;9269;50.838;12.094;2024-03-08T00:55:41;5.30;42.30
18287;DHT22;9269;50.838;12.094;2024-03-08T00:58:09;5.20;42.30
18287;DHT22;9269;50.838;12.094;2024-03-08T01:00:57;5.10;42.70
18287;DHT22;9269;50.838;12.094;2024-03-08T01:03:27;5.30;42.60
18287;DHT22;9269;50.838;12.094;2024-03-08T01:05:58;5.40;42.70
18287;DHT22;9269;50.838;12.094;2024-03-08T01:08:29;5.20;42.40
18287;DHT22;9269;50.838;12.094;2024-03-08T01:11:00;5.00;42.90
18287;DHT22;9269;50.838;12.094;2024-03-08T01:13:28;5.20;42.60
18287;DHT22;9269;50.838;12.094;2024-03-08T01:15:57;5.30;42.80
18287;DHT22;9269;50.838;12.094;2024-03-08T01:18:26;5.20;42.70
18287;DHT22;9269;50.838;12.094;2024-03-08T01:20:54;5.20;43.00
18287;DHT22;9269;50.838;12.094;2024-03-08T01:23:22;5.10;43.30
18287;DHT22;9269;50.838;12.094;2024-03-08T01:26:09;4.90;43.30
18287;DHT22;9269;50.838;12.094;2024-03-08T01:28:40;5.10;43.30
18287;DHT22;9269;50.838;12.094;2024-03-08T01:31:13;5.10;43.40
18287;DHT22;9269;50.838;12.094;2024-03-08T01:33:44;5.10;43.30
18287;DHT22;9269;50.838;12.094;2024-03-08T01:36:16;4.80;43.40
18287;DHT22;9269;50.838;12.094;2024-03-08T01:39:03;5.00;43.40
18287;DHT22;9269;50.838;12.094;2024-03-08T01:41:36;5.00;43.20
18287;DHT22;9269;50.838;12.094;2024-03-08T01:44:04;4.80;43.40
18287;DHT22;9269;50.838;12.094;2024-03-08T01:46:36;5.20;43.10
18287;DHT22;9269;50.838;12.094;2024-03-08T01:49:08;4.90;42.50
18287;DHT22;9269;50.838;12.094;2024-03-08T01:51:40;5.00;43.00
18287;DHT22;9269;50.838;12.094;2024-03-08T01:54:11;4.80;43.00
18287;DHT22;9269;50.838;12.094;2024-03-08T01:56:41;5.00;42.50
18287;DHT22;9269;50.838;12.094;2024-03-08T01:59:10;4.80;42.80
18287;DHT22;9269;50.838;12.094;2024-03-08T02:01:40;4.80;42.40
18287;DHT22;9269;50.838;12.094;2024-03-08T02:04:09;4.70;42.30
18287;DHT22;9269;50.838;12.094;2024-03-08T02:06:38;4.80;42.20
18287;DHT22;9269;50.838;12.094;2024-03-08T02:09:27;4.80;42.20
18287;DHT22;9269;50.838;12.094;2024-03-08T02:11:58;4.70;42.50
18287;DHT22;9269;50.838;12.094;2024-03-08T02:14:28;4.80;42.20
18287;DHT22;9269;50.838;12.094;2024-03-08T02:17:02;4.70;42.00
18287;DHT22;9269;50.838;12.094;2024-03-08T02:19:30;4.50;41.90
18287;DHT22;9269;50.838;12.094;2024-03-08T02:22:00;4.50;42.10
18287;DHT22;9269;50.838;12.094;2024-03-08T02:24:32;4.70;41.80
18287;DHT22;9269;50.838;12.094;2024-03-08T02:27:00;4.70;42.10
18287;DHT22;9269;50.838;12.094;2024-03-08T02:29:29;4.60;41.90
18287;DHT22;9269;50.838;12.094;2024-03-08T02:31:58;4.70;41.90
18287;DHT22;9269;50.838;12.094;2024-03-08T02:34:29;4.60;41.80
18287;DHT22;9269;50.838;12.094;2024-03-08T02:37:01;4.40;41.80
18287;DHT22;9269;50.838;12.094;2024-03-08T02:39:33;4.60;42.20
18287;DHT22;9269;50.838;12.094;2024-03-08T02:42:03;4.60;42.40
18287;DHT22;9269;50.838;12.094;2024-03-08T02:44:31;4.40;42.20
18287;DHT22;9269;50.838;12.094;2024-03-08T02:47:00;4.40;41.90
18287;DHT22;9269;50.838;12.094;2024-03-08T02:49:29;4.40;42.00
18287;DHT22;9269;50.838;12.094;2024-03-08T02:51:57;4.40;42.60
18287;DHT22;9269;50.838;12.094;2024-03-08T02:54:37;4.40;42.90
18287;DHT22;9269;50.838;12.094;2024-03-08T02:57:09;4.40;43.10
18287;DHT22;9269;50.838;12.094;2024-03-08T02:59:40;4.50;43.10
18287;DHT22;9269;50.838;12.094;2024-03-08T03:02:11;4.50;43.00
18287;DHT22;9269;50.838;12.094;2024-03-08T03:04:39;4.50;43.40
18287;DHT22;9269;50.838;12.094;2024-03-08T03:07:08;4.40;43.40
18287;DHT22;9269;50.838;12.094;2024-03-08T03:09:42;4.30;43.90
18287;DHT22;9269;50.838;12.094;2024-03-08T03:12:11;4.30;43.90
18287;DHT22;9269;50.838;12.094;2024-03-08T03:14:59;4.40;43.70
18287;DHT22;9269;50.838;12.094;2024-03-08T03:17:30;4.40;43.80
18287;DHT22;9269;50.838;12.094;2024-03-08T03:20:02;4.20;43.60
18287;DHT22;9269;50.838;12.094;2024-03-08T03:22:40;4.40;43.70
18287;DHT22;9269;50.838;12.094;2024-03-08T03:25:12;4.40;43.70
18287;DHT22;9269;50.838;12.094;2024-03-08T03:27:41;4.20;43.40
18287;DHT22;9269;50.838;12.094;2024-03-08T03:30:10;4.10;43.40
18287;DHT22;9269;50.838;12.094;2024-03-08T03:32:49;4.40;43.30
18287;DHT22;9269;50.838;12.094;2024-03-08T03:35:18;4.40;43.40
18287;DHT22;9269;50.838;12.094;2024-03-08T03:37:49;4.30;43.60
18287;DHT22;9269;50.838;12.094;2024-03-08T03:40:33;4.30;43.90
18287;DHT22;9269;50.838;12.094;2024-03-08T03:43:07;4.30;43.70
18287;DHT22;9269;50.838;12.094;2024-03-08T03:45:39;4.40;44.00
18287;DHT22;9269;50.838;12.094;2024-03-08T03:48:09;4.10;44.20
18287;DHT22;9269;50.838;12.094;2024-03-08T03:50:39;4.20;44.00
18287;DHT22;9269;50.838;12.094;2024-03-08T03:53:08;4.20;44.40
18287;DHT22;9269;50.838;12.094;2024-03-08T03:55:39;4.20;44.30
18287;DHT22;9269;50.838;12.094;2024-03-08T03:58:08;4.30;44.00
18287;DHT22;9269;50.838;12.094;2024-03-08T04:00:41;4.20;44.20
18287;DHT22;9269;50.838;12.094;2024-03-08T04:03:12;4.20;44.80
18287;DHT22;9269;50.838;12.094;2024-03-08T04:05:43;4.20;44.70
18287;DHT22;9269;50.838;12.094;2024-03-08T04:08:15;4.00;44.70
18287;DHT22;9269;50.838;12.094;2024-03-08T04:10:45;4.00;44.80
18287;DHT22;9269;50.838;12.094;2024-03-08T04:13:13;4.20;44.80
18287;DHT22;9269;50.838;12.094;2024-03-08T04:15:42;4.20;44.90
18287;DHT22;9269;50.838;12.094;2024-03-08T04:18:16;4.20;44.90
18287;DHT22;9269;50.838;12.094;2024-03-08T04:20:48;4.20;44.90
18287;DHT22;9269;50.838;12.094;2024-03-08T04:23:19;4.00;45.10
18287;DHT22;9269;50.838;12.094;2024-03-08T04:25:51;4.10;45.10
18287;DHT22;9269;50.838;12.094;2024-03-08T04:28:21;3.90;45.10
18287;DHT22;9269;50.838;12.094;2024-03-08T04:30:52;4.00;44.80
18287;DHT22;9269;50.838;12.094;2024-03-08T04:33:21;4.00;45.20
18287;DHT22;9269;50.838;12.094;2024-03-08T04:36:00;4.10;44.80
18287;DHT22;9269;50.838;12.094;2024-03-08T04:38:28;3.90;45.10
18287;DHT22;9269;50.838;12.094;2024-03-08T04:40:59;3.90;45.40
18287;DHT22;9269;50.838;12.094;2024-03-08T04:43:33;4.00;45.50
18287;DHT22;9269;50.838;12.094;2024-03-08T04:46:04;4.10;45.30
18287;DHT22;9269;50.838;12.094;2024-03-08T04:48:36;3.80;45.80
18287;DHT22;9269;50.838;12.094;2024-03-08T04:51:07;3.80;45.60
18287;DHT22;9269;50.838;12.094;2024-03-08T04:53:37;3.80;45.60
18287;DHT22;9269;50.838;12.094;2024-03-08T04:56:07;3.80;45.80
18287;DHT22;9269;50.838;12.094;2024-03-08T04:58:36;3.80;45.60
18287;DHT22;9269;50.838;12.094;2024-03-08T05:01:21;3.80;45.40
18287;DHT22;9269;50.838;12.094;2024-03-08T05:03:49;3.80;45.30
18287;DHT22;9269;50.838;12.094;2024-03-08T05:06:21;3.70;45.20
18287;DHT22;9269;50.838;12.094;2024-03-08T05:08:52;3.90;45.30
18287;DHT22;9269;50.838;12.094;2024-03-08T05:11:25;3.90;45.40
18287;DHT22;9269;50.838;12.094;2024-03-08T05:13:56;3.70;45.30
18287;DHT22;9269;50.838;12.094;2024-03-08T05:16:26;3.70;45.10
18287;DHT22;9269;50.838;12.094;2024-03-08T05:18:54;3.80;45.30
18287;DHT22;9269;50.838;12.094;2024-03-08T05:21:24;3.90;45.10
18287;DHT22;9269;50.838;12.094;2024-03-08T05:23:52;3.90;44.90
18287;DHT22;9269;50.838;12.094;2024-03-08T05:26:25;3.80;44.90
18287;DHT22;9269;50.838;12.094;2024-03-08T05:28:55;3.90;44.50
18287;DHT22;9269;50.838;12.094;2024-03-08T05:31:25;3.70;44.70
18287;DHT22;9269;50.838;12.094;2024-03-08T05:33:55;3.80;45.00
18287;DHT22;9269;50.838;12.094;2024-03-08T05:36:26;3.80;44.70
18287;DHT22;9269;50.838;12.094;2024-03-08T05:38:54;3.80;45.20
18287;DHT22;9269;50.838;12.094;2024-03-08T05:41:22;3.70;45.50
18287;DHT22;9269;50.838;12.094;2024-03-08T05:43:53;3.70;45.30
18287;DHT22;9269;50.838;12.094;2024-03-08T05:46:22;3.70;45.30
18287;DHT22;9269;50.838;12.094;2024-03-08T05:48:51;3.80;45.20
18287;DHT22;9269;50.838;12.094;2024-03-08T05:51:25;3.80;45.90
18287;DHT22;9269;50.838;12.094;2024-03-08T05:53:54;3.70;45.80
18287;DHT22;9269;50.838;12.094;2024-03-08T05:56:25;3.80;45.70
18287;DHT22;9269;50.838;12.094;2024-03-08T05:58:55;3.80;45.90
18287;DHT22;9269;50.838;12.094;2024-03-08T06:01:24;3.80;46.20
18287;DHT22;9269;50.838;12.094;2024-03-08T06:03:53;3.70;46.10
18287;DHT22;9269;50.838;12.094;2024-03-08T06:06:23;3.60;46.40
18287;DHT22;9269;50.838;12.094;2024-03-08T06:08:52;3.80;46.10
18287;DHT22;9269;50.838;12.094;2024-03-08T06:11:23;3.80;46.20
18287;DHT22;9269;50.838;12.094;2024-03-08T06:13:58;3.80;46.40
18287;DHT22;9269;50.838;12.094;2024-03-08T06:16:30;3.90;46.40
18287;DHT22;9269;50.838;12.094;2024-03-08T06:19:01;3.80;46.30
18287;DHT22;9269;50.838;12.094;2024-03-08T06:21:30;3.80;46.70
18287;DHT22;9269;50.838;12.094;2024-03-08T06:23:59;3.90;46.80
18287;DHT22;9269;50.838;12.094;2024-03-08T06:26:28;3.90;46.60
18287;DHT22;9269;50.838;12.094;2024-03-08T06:28:59;3.80;46.20
18287;DHT22;9269;50.838;12.094;2024-03-08T06:31:47;3.90;46.10
18287;DHT22;9269;50.838;12.094;2024-03-08T06:34:18;3.90;46.00
18287;DHT22;9269;50.838;12.094;2024-03-08T06:36:48;3.80;46.20
18287;DHT22;9269;50.838;12.094;2024-03-08T06:39:19;3.90;46.10
18287;DHT22;9269;50.838;12.094;2024-03-08T06:41:48;3.90;46.10
18287;DHT22;9269;50.838;12.094;2024-03-08T06:44:20;3.90;46.00
18287;DHT22;9269;50.838;12.094;2024-03-08T06:46:49;4.00;46.20
18287;DHT22;9269;50.838;12.094;2024-03-08T06:49:17;4.00;45.70
18287;DHT22;9269;50.838;12.094;2024-03-08T06:51:45;4.20;45.70
18287;DHT22;9269;50.838;12.094;2024-03-08T06:54:17;4.10;45.30
18287;DHT22;9269;50.838;12.094;2024-03-08T06:56:48;4.20;45.70
18287;DHT22;9269;50.838;12.094;2024-03-08T06:59:21;4.00;45.30
18287;DHT22;9269;50.838;12.094;2024-03-08T07:01:52;4.30;45.30
18287;DHT22;9269;50.838;12.094;2024-03-08T07:04:21;4.20;45.40
18287;DHT22;9269;50.838;12.094;2024-03-08T07:06:53;4.20;45.10
18287;DHT22;9269;50.838;12.094;2024-03-08T07:09:23;4.10;45.10
18287;DHT22;9269;50.838;12.094;2024-03-08T07:11:52;4.30;45.20
18287;DHT22;9269;50.838;12.094;2024-03-08T07:14:24;4.50;45.20
18287;DHT22;9269;50.838;12.094;2024-03-08T07:16:52;4.40;45.60
18287;DHT22;9269;50.838;12.094;2024-03-08T07:19:23;4.50;45.40
18287;DHT22;9269;50.838;12.094;2024-03-08T07:21:54;4.40;45.10
18287;DHT22;9269;50.838;12.094;2024-03-08T07:24:24;4.50;45.20
18287;DHT22;9269;50.838;12.094;2024-03-08T07:27:06;4.50;45.10
18287;DHT22;9269;50.838;12.094;2024-03-08T07:29:36;4.70;45.30
18287;DHT22;9269;50.838;12.094;2024-03-08T07:32:04;4.80;45.00
18287;DHT22;9269;50.838;12.094;2024-03-08T07:34:47;4.90;45.20
18287;DHT22;9269;50.838;12.094;2024-03-08T07:37:36;5.10;45.20
18287;DHT22;9269;50.838;12.094;2024-03-08T07:40:08;5.10;45.20
18287;DHT22;9269;50.838;12.094;2024-03-08T07:42:38;5.20;45.00
18287;DHT22;9269;50.838;12.094;2024-03-08T07:45:11;5.20;44.80
18287;DHT22;9269;50.838;12.094;2024-03-08T07:47:40;5.40;44.90
18287;DHT22;9269;50.838;12.094;2024-03-08T07:50:10;5.30;44.90
18287;DHT22;9269;50.838;12.094;2024-03-08T07:52:39;5.40;45.00
18287;DHT22;9269;50.838;12.094;2024-03-08T07:55:09;5.50;44.80
18287;DHT22;9269;50.838;12.094;2024-03-08T07:57:41;5.60;44.60
18287;DHT22;9269;50.838;12.094;2024-03-08T08:00:15;5.80;44.60
18287;DHT22;9269;50.838;12.094;2024-03-08T08:02:48;5.80;44.40
18287;DHT22;9269;50.838;12.094;2024-03-08T08:05:20;5.70;44.20
18287;DHT22;9269;50.838;12.094;2024-03-08T08:07:51;6.10;44.10
18287;DHT22;9269;50.838;12.094;2024-03-08T08:10:21;6.10;44.40
18287;DHT22;9269;50.838;12.094;2024-03-08T08:12:53;6.10;44.60
18287;DHT22;9269;50.838;12.094;2024-03-08T08:15:22;6.40;44.30
18287;DHT22;9269;50.838;12.094;2024-03-08T08:17:51;6.20;44.20
18287;DHT22;9269;50.838;12.094;2024-03-08T08:20:20;6.40;44.10
18287;DHT22;9269;50.838;12.094;2024-03-08T08:22:52;6.40;43.70
18287;DHT22;9269;50.838;12.094;2024-03-08T08:25:25;6.70;43.90
18287;DHT22;9269;50.838;12.094;2024-03-08T08:27:56;6.80;43.50
18287;DHT22;9269;50.838;12.094;2024-03-08T08:30:28;6.90;43.60
18287;DHT22;9269;50.838;12.094;2024-03-08T08:32:57;7.00;43.40
18287;DHT22;9269;50.838;12.094;2024-03-08T08:35:28;7.10;43.50
18287;DHT22;9269;50.838;12.094;2024-03-08T08:37:56;7.10;43.30
18287;DHT22;9269;50.838;12.094;2024-03-08T08:40:26;7.40;43.40
18287;DHT22;9269;50.838;12.094;2024-03-08T08:42:58;7.50;43.60
18287;DHT22;9269;50.838;12.094;2024-03-08T08:45:31;7.70;43.00
18287;DHT22;9269;50.838;12.094;2024-03-08T08:48:02;7.70;43.00
18287;DHT22;9269;50.838;12.094;2024-03-08T08:50:34;7.80;43.20
18287;DHT22;9269;50.838;12.094;2024-03-08T08:53:04;7.90;43.40
18287;DHT22;9269;50.838;12.094;2024-03-08T08:55:34;7.90;43.70
18287;DHT22;9269;50.838;12.094;2024-03-08T08:58:03;8.00;43.60
18287;DHT22;9269;50.838;12.094;2024-03-08T09:00:35;8.20;43.40
18287;DHT22;9269;50.838;12.094;2024-03-08T09:03:05;8.40;43.60
18287;DHT22;9269;50.838;12.094;2024-03-08T09:05:37;8.40;43.50
18287;DHT22;9269;50.838;12.094;2024-03-08T09:08:10;8.70;44.20
18287;DHT22;9269;50.838;12.094;2024-03-08T09:10:38;8.80;43.80
18287;DHT22;9269;50.838;12.094;2024-03-08T09:13:07;9.00;43.90
18287;DHT22;9269;50.838;12.094;2024-03-08T09:15:46;9.10;43.50
18287;DHT22;9269;50.838;12.094;2024-03-08T09:18:18;9.30;43.40
18287;DHT22;9269;50.838;12.094;2024-03-08T09:20:47;9.30;43.50
18287;DHT22;9269;50.838;12.094;2024-03-08T09:23:15;9.40;43.00
18287;DHT22;9269;50.838;12.094;2024-03-08T09:25:44;9.50;42.30
18287;DHT22;9269;50.838;12.094;2024-03-08T09:28:17;9.50;41.90
18287;DHT22;9269;50.838;12.094;2024-03-08T09:30:49;9.40;41.00
18287;DHT22;9269;50.838;12.094;2024-03-08T09:33:29;9.60;41.40
18287;DHT22;9269;50.838;12.094;2024-03-08T09:36:02;9.60;41.50
18287;DHT22;9269;50.838;12.094;2024-03-08T09:38:31;9.70;41.10
18287;DHT22;9269;50.838;12.094;2024-03-08T09:41:01;9.70;41.10
18287;DHT22;9269;50.838;12.094;2024-03-08T09:43:31;9.80;41.10
18287;DHT22;9269;50.838;12.094;2024-03-08T09:46:03;9.80;41.10
18287;DHT22;9269;50.838;12.094;2024-03-08T09:48:35;9.90;40.90
18287;DHT22;9269;50.838;12.094;2024-03-08T09:51:06;10.00;40.80
18287;DHT22;9269;50.838;12.094;2024-03-08T09:53:37;10.10;40.80
18287;DHT22;9269;50.838;12.094;2024-03-08T09:56:08;10.10;40.80
18287;DHT22;9269;50.838;12.094;2024-03-08T09:58:37;10.20;40.40
18287;DHT22;9269;50.838;12.094;2024-03-08T10:01:22;10.30;40.10
18287;DHT22;9269;50.838;12.094;2024-03-08T10:03:54;10.30;40.10
18287;DHT22;9269;50.838;12.094;2024-03-08T10:06:23;10.30;40.10
18287;DHT22;9269;50.838;12.094;2024-03-08T10:08:51;10.50;39.60
18287;DHT22;9269;50.838;12.094;2024-03-08T10:11:21;10.50;39.50
18287;DHT22;9269;50.838;12.094;2024-03-08T10:13:52;10.60;39.30
18287;DHT22;9269;50.838;12.094;2024-03-08T10:16:23;10.60;39.40
18287;DHT22;9269;50.838;12.094;2024-03-08T10:18:53;10.70;39.90
18287;DHT22;9269;50.838;12.094;2024-03-08T10:21:21;10.80;39.60
18287;DHT22;9269;50.838;12.094;2024-03-08T10:24:10;11.00;40.20
18287;DHT22;9269;50.838;12.094;2024-03-08T10:26:59;11.10;39.50
18287;DHT22;9269;50.838;12.094;2024-03-08T10:29:29;11.30;39.50
18287;DHT22;9269;50.838;12.094;2024-03-08T10:32:16;11.40;38.80
18287;DHT22;9269;50.838;12.094;2024-03-08T10:34:44;11.50;38.40
18287;DHT22;9269;50.838;12.094;2024-03-08T10:37:21;11.70;38.50
18287;DHT22;9269;50.838;12.094;2024-03-08T10:40:02;11.70;38.30
18287;DHT22;9269;50.838;12.094;2024-03-08T10:42:40;11.70;38.00
18287;DHT22;9269;50.838;12.094;2024-03-08T10:45:15;11.90;37.60
18287;DHT22;9269;50.838;12.094;2024-03-08T10:47:57;11.90;37.40
18287;DHT22;9269;50.838;12.094;2024-03-08T10:50:29;11.90;37.10
18287;DHT22;9269;50.838;12.094;2024-03-08T10:52:59;11.90;36.90
18287;DHT22;9269;50.838;12.094;2024-03-08T10:55:32;12.10;37.00
18287;DHT22;9269;50.838;12.094;2024-03-08T10:58:03;12.10;36.40
18287;DHT22;9269;50.838;12.094;2024-03-08T11:00:36;12.10;37.00
18287;DHT22;9269;50.838;12.094;2024-03-08T11:03:44;12.20;36.60
18287;DHT22;9269;50.838;12.094;2024-03-08T11:06:18;12.20;36.30
18287;DHT22;9269;50.838;12.094;2024-03-08T11:08:50;12.20;36.40
18287;DHT22;9269;50.838;12.094;2024-03-08T11:11:26;12.40;36.60
18287;DHT22;9269;50.838;12.094;2024-03-08T11:14:01;12.40;36.60
18287;DHT22;9269;50.838;12.094;2024-03-08T11:16:38;12.60;36.50
18287;DHT22;9269;50.838;12.094;2024-03-08T11:19:25;12.70;35.90
18287;DHT22;9269;50.838;12.094;2024-03-08T11:21:58;12.70;34.20
18287;DHT22;9269;50.838;12.094;2024-03-08T11:24:37;12.70;34.60
18287;DHT22;9269;50.838;12.094;2024-03-08T11:27:06;12.80;34.80
18287;DHT22;9269;50.838;12.094;2024-03-08T11:29:38;12.90;35.00
18287;DHT22;9269;50.838;12.094;2024-03-08T11:32:08;13.00;34.90
18287;DHT22;9269;50.838;12.094;2024-03-08T11:34:41;13.20;35.50
18287;DHT22;9269;50.838;12.094;2024-03-08T11:37:33;13.30;34.70
18287;DHT22;9269;50.838;12.094;2024-03-08T11:40:11;13.30;34.40
18287;DHT22;9269;50.838;12.094;2024-03-08T11:42:45;13.30;34.00
18287;DHT22;9269;50.838;12.094;2024-03-08T11:45:18;13.30;34.40
18287;DHT22;9269;50.838;12.094;2024-03-08T11:47:50;13.40;34.70
18287;DHT22;9269;50.838;12.094;2024-03-08T11:50:25;13.40;33.30
18287;DHT22;9269;50.838;12.094;2024-03-08T11:53:00;13.50;33.20
18287;DHT22;9269;50.838;12.094;2024-03-08T11:55:29;13.50;32.40
18287;DHT22;9269;50.838;12.094;2024-03-08T11:58:03;13.40;32.70
18287;DHT22;9269;50.838;12.094;2024-03-08T12:00:41;13.40;31.70
18287;DHT22;9269;50.838;12.094;2024-03-08T12:03:11;13.50;32.10
18287;DHT22;9269;50.838;12.094;2024-03-08T12:05:43;13.50;33.00
18287;DHT22;9269;50.838;12.094;2024-03-08T12:08:14;13.60;33.10
18287;DHT22;9269;50.838;12.094;2024-03-08T12:10:43;13.60;33.60
18287;DHT22;9269;50.838;12.094;2024-03-08T12:13:11;13.70;33.10
18287;DHT22;9269;50.838;12.094;2024-03-08T12:15:41;13.80;32.30
18287;DHT22;9269;50.838;12.094;2024-03-08T12:18:11;13.90;32.30
18287;DHT22;9269;50.838;12.094;2024-03-08T12:20:40;13.90;32.20
18287;DHT22;9269;50.838;12.094;2024-03-08T12:23:18;13.90;31.30
18287;DHT22;9269;50.838;12.094;2024-03-08T12:25:47;14.00;31.90
18287;DHT22;9269;50.838;12.094;2024-03-08T12:28:19;14.00;32.10
18287;DHT22;9269;50.838;12.094;2024-03-08T12:30:51;14.10;32.00
18287;DHT22;9269;50.838;12.094;2024-03-08T12:33:22;14.10;32.00
18287;DHT22;9269;50.838;12.094;2024-03-08T12:35:51;14.10;31.10
18287;DHT22;9269;50.838;12.094;2024-03-08T12:38:27;14.10;31.40
18287;DHT22;9269;50.838;12.094;2024-03-08T12:40:59;14.20;32.10
18287;DHT22;9269;50.838;12.094;2024-03-08T12:43:30;14.20;32.00
18287;DHT22;9269;50.838;12.094;2024-03-08T12:46:00;14.20;30.70
18287;DHT22;9269;50.838;12.094;2024-03-08T12:48:34;14.30;30.60
18287;DHT22;9269;50.838;12.094;2024-03-08T12:51:03;14.20;31.00
18287;DHT22;9269;50.838;12.094;2024-03-08T12:53:35;14.30;31.10
18287;DHT22;9269;50.838;12.094;2024-03-08T12:56:05;14.20;30.50
18287;DHT22;9269;50.838;12.094;2024-03-08T12:58:35;14.30;31.10
18287;DHT22;9269;50.838;12.094;2024-03-08T13:01:04;14.30;30.90
18287;DHT22;9269;50.838;12.094;2024-03-08T13:03:36;14.40;30.70
18287;DHT22;9269;50.838;12.094;2024-03-08T13:06:06;14.40;30.10
18287;DHT22;9269;50.838;12.094;2024-03-08T13:08:37;14.40;30.00
18287;DHT22;9269;50.838;12.094;2024-03-08T13:11:06;14.50;30.30
18287;DHT22;9269;50.838;12.094;2024-03-08T13:13:38;14.40;30.50
18287;DHT22;9269;50.838;12.094;2024-03-08T13:16:07;14.40;30.90
18287;DHT22;9269;50.838;12.094;2024-03-08T13:18:36;14.50;30.10
18287;DHT22;9269;50.838;12.094;2024-03-08T13:21:05;14.50;30.30
18287;DHT22;9269;50.838;12.094;2024-03-08T13:23:34;14.50;29.70
18287;DHT22;9269;50.838;12.094;2024-03-08T13:26:09;14.50;29.10
18287;DHT22;9269;50.838;12.094;2024-03-08T13:28:42;14.50;29.80
18287;DHT22;9269;50.838;12.094;2024-03-08T13:31:13;14.50;30.10
18287;DHT22;9269;50.838;12.094;2024-03-08T13:33:45;14.50;30.50
18287;DHT22;9269;50.838;12.094;2024-03-08T13:36:14;14.50;29.60
18287;DHT22;9269;50.838;12.094;2024-03-08T13:38:43;14.40;29.10
18287;DHT22;9269;50.838;12.094;2024-03-08T13:41:15;14.40;29.80
18287;DHT22;9269;50.838;12.094;2024-03-08T13:43:46;14.50;29.20
18287;DHT22;9269;50.838;12.094;2024-03-08T13:46:33;14.40;29.40
18287;DHT22;9269;50.838;12.094;2024-03-08T13:49:06;14.30;29.60
18287;DHT22;9269;50.838;12.094;2024-03-08T13:51:39;14.30;30.00
18287;DHT22;9269;50.838;12.094;2024-03-08T13:54:11;14.30;29.50
18287;DHT22;9269;50.838;12.094;2024-03-08T13:56:44;14.30;29.70
18287;DHT22;9269;50.838;12.094;2024-03-08T13:59:14;14.20;29.80
18287;DHT22;9269;50.838;12.094;2024-03-08T14:01:42;14.40;30.20
18287;DHT22;9269;50.838;12.094;2024-03-08T14:04:12;14.30;29.50
18287;DHT22;9269;50.838;12.094;2024-03-08T14:06:44;14.30;29.40
18287;DHT22;9269;50.838;12.094;2024-03-08T14:09:12;14.20;29.70
18287;DHT22;9269;50.838;12.094;2024-03-08T14:11:45;14.30;29.50
18287;DHT22;9269;50.838;12.094;2024-03-08T14:14:17;14.10;29.70
18287;DHT22;9269;50.838;12.094;2024-03-08T14:16:48;14.20;29.60
18287;DHT22;9269;50.838;12.094;2024-03-08T14:19:21;14.10;29.60
18287;DHT22;9269;50.838;12.094;2024-03-08T14:21:49;14.20;30.00
18287;DHT22;9269;50.838;12.094;2024-03-08T14:24:20;14.20;29.90
18287;DHT22;9269;50.838;12.094;2024-03-08T14:26:50;14.10;30.10
18287;DHT22;9269;50.838;12.094;2024-03-08T14:29:19;14.20;29.70
18287;DHT22;9269;50.838;12.094;2024-03-08T14:31:47;14.20;30.00
18287;DHT22;9269;50.838;12.094;2024-03-08T14:34:16;14.10;29.60
18287;DHT22;9269;50.838;12.094;2024-03-08T14:36:47;14.00;29.60
18287;DHT22;9269;50.838;12.094;2024-03-08T14:39:18;14.10;29.60
18287;DHT22;9269;50.838;12.094;2024-03-08T14:41:53;14.10;29.90
18287;DHT22;9269;50.838;12.094;2024-03-08T14:44:22;14.20;29.60
18287;DHT22;9269;50.838;12.094;2024-03-08T14:46:52;14.20;29.80
18287;DHT22;9269;50.838;12.094;2024-03-08T14:49:21;14.10;29.90
18287;DHT22;9269;50.838;12.094;2024-03-08T14:51:50;14.10;29.70
18287;DHT22;9269;50.838;12.094;2024-03-08T14:54:21;14.10;30.20
18287;DHT22;9269;50.838;12.094;2024-03-08T14:56:53;14.10;29.60
18287;DHT22;9269;50.838;12.094;2024-03-08T14:59:26;14.00;30.00
18287;DHT22;9269;50.838;12.094;2024-03-08T15:01:59;13.90;29.90
18287;DHT22;9269;50.838;12.094;2024-03-08T15:04:30;13.90;30.10
18287;DHT22;9269;50.838;12.094;2024-03-08T15:06:58;13.90;30.10
18287;DHT22;9269;50.838;12.094;2024-03-08T15:09:29;13.80;30.10
18287;DHT22;9269;50.838;12.094;2024-03-08T15:12:07;13.80;30.10
18287;DHT22;9269;50.838;12.094;2024-03-08T15:14:40;13.80;30.40
18287;DHT22;9269;50.838;12.094;2024-03-08T15:17:13;13.70;30.10
18287;DHT22;9269;50.838;12.094;2024-03-08T15:19:49;13.60;30.60
18287;DHT22;9269;50.838;12.094;2024-03-08T15:22:22;13.60;30.30
18287;DHT22;9269;50.838;12.094;2024-03-08T15:24:53;13.50;30.60
18287;DHT22;9269;50.838;12.094;2024-03-08T15:27:23;13.40;30.60
18287;DHT22;9269;50.838;12.094;2024-03-08T15:29:52;13.30;30.60
18287;DHT22;9269;50.838;12.094;2024-03-08T15:32:23;13.20;30.80
18287;DHT22;9269;50.838;12.094;2024-03-08T15:34:51;13.20;30.80
18287;DHT22;9269;50.838;12.094;2024-03-08T15:37:21;13.10;31.20
18287;DHT22;9269;50.838;12.094;2024-03-08T15:39:50;13.00;31.10
18287;DHT22;9269;50.838;12.094;2024-03-08T15:42:22;12.90;30.90
18287;DHT22;9269;50.838;12.094;2024-03-08T15:44:55;12.90;30.90
18287;DHT22;9269;50.838;12.094;2024-03-08T15:47:26;12.80;31.00
18287;DHT22;9269;50.838;12.094;2024-03-08T15:49:55;12.80;31.50
18287;DHT22;9269;50.838;12.094;2024-03-08T15:52:24;12.70;31.20
18287;DHT22;9269;50.838;12.094;2024-03-08T15:54:53;12.70;33.00
18287;DHT22;9269;50.838;12.094;2024-03-08T15:57:23;12.60;32.60
18287;DHT22;9269;50.838;12.094;2024-03-08T16:00:11;12.50;33.00
18287;DHT22;9269;50.838;12.094;2024-03-08T16:02:48;12.40;33.00
18287;DHT22;9269;50.838;12.094;2024-03-08T16:05:20;12.40;33.00
18287;DHT22;9269;50.838;12.094;2024-03-08T16:07:52;12.30;33.20
18287;DHT22;9269;50.838;12.094;2024-03-08T16:10:22;12.10;33.60
18287;DHT22;9269;50.838;12.094;2024-03-08T16:12:54;12.00;33.30